createdAt,value
2018-11-27T00:01:56.142Z,100395.47
2018-11-27T00:04:26.965Z,100393.69
2018-11-27T00:06:57.662Z,100396.30
2018-11-27T00:09:28.375Z,100390.18
2018-11-27T00:11:59.161Z,100385.32
2018-11-27T00:14:29.971Z,100382.72
2018-11-27T00:17:00.739Z,100388.76
2018-11-27T00:19:31.533Z,100391.84
2018-11-27T00:22:02.302Z,100389.12
2018-11-27T00:24:33.127Z,100393.54
2018-11-27T00:27:03.932Z,100389.16
2018-11-27T00:29:34.623Z,100386.63
2018-11-27T00:32:05.472Z,100393.26
2018-11-27T00:34:36.266Z,100399.37
2018-11-27T00:37:07.015Z,100398.40
2018-11-27T00:39:37.760Z,100397.53
2018-11-27T00:42:08.496Z,100404.13
2018-11-27T00:44:39.255Z,100397.75
2018-11-27T00:47:09.967Z,100399.92
2018-11-27T00:49:40.692Z,100403.29
2018-11-27T00:52:11.425Z,100403.84
2018-11-27T00:54:42.073Z,100399.09
2018-11-27T00:57:12.740Z,100401.73
2018-11-27T00:59:43.448Z,100409.13
2018-11-27T01:02:14.210Z,100407.34
2018-11-27T01:04:44.852Z,100410.50
2018-11-27T01:07:15.594Z,100412.73
2018-11-27T01:09:46.270Z,100417.16
2018-11-27T01:12:16.950Z,100420.70
2018-11-27T01:14:47.649Z,100423.84
2018-11-27T01:17:18.348Z,100425.03
2018-11-27T01:19:49.010Z,100435.99
2018-11-27T01:22:19.729Z,100433.86
2018-11-27T01:24:50.486Z,100433.89
2018-11-27T01:27:21.200Z,100437.86
2018-11-27T01:29:51.921Z,100438.20
2018-11-27T01:32:22.637Z,100434.05
2018-11-27T01:34:53.327Z,100443.63
2018-11-27T01:37:24.018Z,100443.70
2018-11-27T01:39:54.752Z,100446.80
2018-11-27T01:42:25.425Z,100449.83
2018-11-27T01:44:56.144Z,100455.07
2018-11-27T01:47:26.909Z,100454.64
2018-11-27T01:49:57.582Z,100452.53
2018-11-27T01:52:28.313Z,100446.45
2018-11-27T01:54:59.029Z,100452.50
2018-11-27T01:57:29.711Z,100445.09
2018-11-27T02:00:00.451Z,100450.33
2018-11-27T02:02:31.149Z,100447.75
2018-11-27T02:05:01.899Z,100446.02
2018-11-27T02:07:32.607Z,100455.84
2018-11-27T02:10:03.704Z,100456.31
2018-11-27T02:12:34.561Z,100457.19
2018-11-27T02:15:07.198Z,100461.98
2018-11-27T02:17:37.947Z,100458.02
2018-11-27T02:20:11.140Z,100461.09
2018-11-27T02:22:42.223Z,100457.95
2018-11-27T02:25:29.446Z,100452.75
2018-11-27T02:28:00.197Z,100452.38
2018-11-27T02:30:30.880Z,100450.11
2018-11-27T02:33:01.584Z,100447.60
2018-11-27T02:35:32.264Z,100441.52
2018-11-27T02:38:03.050Z,100436.34
2018-11-27T02:40:33.823Z,100441.09
2018-11-27T02:43:04.534Z,100441.86
2018-11-27T02:45:35.255Z,100443.16
2018-11-27T02:48:07.575Z,100440.97
2018-11-27T02:50:38.425Z,100438.83
2018-11-27T02:53:09.172Z,100442.86
2018-11-27T02:55:39.859Z,100442.80
2018-11-27T02:58:10.612Z,100439.79
2018-11-27T03:00:41.318Z,100441.56
2018-11-27T03:03:12.015Z,100447.08
2018-11-27T03:05:42.744Z,100441.19
2018-11-27T03:08:13.430Z,100451.60
2018-11-27T03:10:44.099Z,100453.02
2018-11-27T03:13:14.804Z,100456.09
2018-11-27T03:15:45.530Z,100454.44
2018-11-27T03:18:16.206Z,100457.06
2018-11-27T03:20:46.864Z,100458.31
2018-11-27T03:23:17.627Z,100461.41
2018-11-27T03:25:48.319Z,100461.47
2018-11-27T03:28:19.074Z,100464.93
2018-11-27T03:30:49.736Z,100461.75
2018-11-27T03:33:20.430Z,100465.80
2018-11-27T03:35:51.170Z,100473.28
2018-11-27T03:38:21.851Z,100473.28
2018-11-27T03:40:52.538Z,100475.45
2018-11-27T03:43:23.297Z,100468.53
2018-11-27T03:45:53.954Z,100469.86
2018-11-27T03:48:24.666Z,100469.00
2018-11-27T03:50:55.358Z,100464.69
2018-11-27T03:53:26.053Z,100465.53
2018-11-27T03:55:56.815Z,100472.41
2018-11-27T03:58:27.567Z,100479.38
2018-11-27T04:00:58.289Z,100475.05
2018-11-27T04:03:29.011Z,100479.38
2018-11-27T04:05:59.710Z,100479.77
2018-11-27T04:08:30.400Z,100482.77
2018-11-27T04:11:01.153Z,100488.33
2018-11-27T04:13:31.841Z,100489.61
2018-11-27T04:16:02.642Z,100489.63
2018-11-27T04:18:33.312Z,100488.28
2018-11-27T04:21:04.012Z,100487.44
2018-11-27T04:23:34.790Z,100499.92
2018-11-27T04:26:05.644Z,100502.60
2018-11-27T04:28:36.449Z,100502.60
2018-11-27T04:31:07.216Z,100504.83
2018-11-27T04:33:38.005Z,100503.47
2018-11-27T04:36:08.724Z,100506.97
2018-11-27T04:38:39.570Z,100505.64
2018-11-27T04:41:10.245Z,100506.42
2018-11-27T04:43:41.022Z,100514.23
2018-11-27T04:46:11.725Z,100520.25
2018-11-27T04:48:42.564Z,100516.79
2018-11-27T04:51:13.250Z,100515.95
2018-11-27T04:53:43.981Z,100518.60
2018-11-27T04:56:14.664Z,100518.06
2018-11-27T04:58:45.412Z,100515.86
2018-11-27T05:01:16.084Z,100518.52
2018-11-27T05:03:46.826Z,100525.44
2018-11-27T05:06:17.531Z,100529.42
2018-11-27T05:08:48.227Z,100534.58
2018-11-27T05:11:18.891Z,100537.13
2018-11-27T05:13:49.626Z,100537.16
2018-11-27T05:16:20.272Z,100535.50
2018-11-27T05:18:50.990Z,100541.42
2018-11-27T05:21:21.661Z,100544.53
2018-11-27T05:23:52.371Z,100545.78
2018-11-27T05:26:23.025Z,100544.94
2018-11-27T05:28:53.740Z,100551.34
2018-11-27T05:31:24.494Z,100544.95
2018-11-27T05:33:55.221Z,100548.41
2018-11-27T05:36:25.965Z,100550.16
2018-11-27T05:38:56.626Z,100551.43
2018-11-27T05:41:27.326Z,100556.15
2018-11-27T05:43:58.951Z,100552.70
2018-11-27T05:46:29.645Z,100558.73
2018-11-27T05:49:00.364Z,100561.28
2018-11-27T05:51:31.086Z,100553.14
2018-11-27T05:54:01.805Z,100554.00
2018-11-27T05:56:32.512Z,100554.06
2018-11-27T05:59:03.189Z,100562.23
2018-11-27T06:01:34.939Z,100563.98
2018-11-27T06:04:06.121Z,100558.32
2018-11-27T06:06:36.884Z,100563.05
2018-11-27T06:09:11.099Z,100563.48
2018-11-27T06:11:42.295Z,100565.23
2018-11-27T06:14:13.086Z,100567.81
2018-11-27T06:16:43.930Z,100576.09
2018-11-27T06:19:14.614Z,100573.92
2018-11-27T06:21:45.333Z,100572.10
2018-11-27T06:24:16.018Z,100577.31
2018-11-27T06:26:46.861Z,100581.63
2018-11-27T06:29:18.683Z,100580.81
2018-11-27T06:31:48.416Z,100585.16
2018-11-27T06:34:19.151Z,100593.02
2018-11-27T06:36:50.003Z,100588.63
2018-11-27T06:39:20.663Z,100598.20
2018-11-27T06:41:51.450Z,100602.09
2018-11-27T06:44:22.094Z,100609.44
2018-11-27T06:46:52.888Z,100610.33
2018-11-27T06:49:23.553Z,100612.89
2018-11-27T06:51:57.119Z,100613.76
2018-11-27T06:54:27.935Z,100613.78
2018-11-27T06:56:58.685Z,100624.61
2018-11-27T06:59:29.360Z,100622.01
2018-11-27T07:02:00.090Z,100634.53
2018-11-27T07:04:30.781Z,100638.86
2018-11-27T07:07:01.528Z,100637.44
2018-11-27T07:09:32.289Z,100642.31
2018-11-27T07:12:03.097Z,100645.25
2018-11-27T07:14:33.813Z,100649.12
2018-11-27T07:17:04.518Z,100647.88
2018-11-27T07:19:35.279Z,100648.70
2018-11-27T07:22:06.296Z,100655.21
2018-11-27T07:24:37.006Z,100660.52
2018-11-27T07:27:07.738Z,100668.37
2018-11-27T07:29:38.446Z,100674.42
2018-11-27T07:32:09.540Z,100676.61
2018-11-27T07:34:39.947Z,100684.00
2018-11-27T07:37:10.623Z,100675.32
2018-11-27T07:39:41.304Z,100676.50
2018-11-27T07:42:11.991Z,100683.06
2018-11-27T07:44:42.691Z,100685.97
2018-11-27T07:47:13.315Z,100689.02
2018-11-27T07:49:44.036Z,100688.58
2018-11-27T07:52:14.688Z,100693.31
2018-11-27T07:54:45.429Z,100698.08
2018-11-27T07:57:16.178Z,100694.58
2018-11-27T07:59:46.931Z,100695.53
2018-11-27T08:02:17.610Z,100695.48
2018-11-27T08:04:48.428Z,100695.91
2018-11-27T08:07:19.594Z,100701.51
2018-11-27T08:09:50.390Z,100700.66
2018-11-27T08:12:21.146Z,100705.45
2018-11-27T08:14:51.883Z,100708.00
2018-11-27T08:17:22.625Z,100710.15
2018-11-27T08:19:53.313Z,100708.00
2018-11-27T08:22:23.988Z,100703.14
2018-11-27T08:24:54.726Z,100702.73
2018-11-27T08:27:25.503Z,100704.02
2018-11-27T08:29:56.196Z,100715.34
2018-11-27T08:32:26.849Z,100721.86
2018-11-27T08:34:57.571Z,100723.62
2018-11-27T08:37:28.280Z,100724.80
2018-11-27T08:39:58.910Z,100733.84
2018-11-27T08:42:29.576Z,100732.59
2018-11-27T08:45:00.270Z,100733.86
2018-11-27T08:47:30.992Z,100735.61
2018-11-27T08:50:01.773Z,100741.23
2018-11-27T08:52:32.541Z,100739.95
2018-11-27T08:55:03.260Z,100737.80
2018-11-27T08:57:34.000Z,100745.19
2018-11-27T09:00:09.709Z,100752.07
2018-11-27T09:02:40.424Z,100749.92
2018-11-27T09:05:12.075Z,100748.27
2018-11-27T09:07:43.414Z,100750.38
2018-11-27T09:10:19.960Z,100753.27
2018-11-27T09:12:50.807Z,100754.16
2018-11-27T09:15:23.081Z,100753.67
2018-11-27T09:18:05.830Z,100751.53
2018-11-27T09:20:38.171Z,100754.03
2018-11-27T09:23:08.926Z,100752.72
2018-11-27T09:25:39.694Z,100751.09
2018-11-27T09:28:10.439Z,100758.41
2018-11-27T09:30:41.224Z,100758.41
2018-11-27T09:33:12.326Z,100754.89
2018-11-27T09:35:43.171Z,100757.42
2018-11-27T09:38:14.134Z,100767.38
2018-11-27T09:40:45.034Z,100767.77
2018-11-27T09:43:15.702Z,100776.50
2018-11-27T09:45:47.814Z,100780.73
2018-11-27T09:48:18.487Z,100783.34
2018-11-27T09:50:49.285Z,100790.39
2018-11-27T09:53:20.090Z,100782.91
2018-11-27T09:55:50.910Z,100784.48
2018-11-27T09:58:21.737Z,100786.33
2018-11-27T10:00:52.511Z,100785.81
2018-11-27T10:03:23.169Z,100787.20
2018-11-27T10:05:53.902Z,100783.95
2018-11-27T10:08:24.561Z,100784.07
2018-11-27T10:10:55.265Z,100786.63
2018-11-27T10:13:25.972Z,100785.26
2018-11-27T10:15:56.633Z,100779.63
2018-11-27T10:18:27.327Z,100786.50
2018-11-27T10:20:57.989Z,100773.52
2018-11-27T10:23:28.612Z,100771.21
2018-11-27T10:25:59.340Z,100769.07
2018-11-27T10:28:32.158Z,100771.68
2018-11-27T10:31:00.785Z,100766.02
2018-11-27T10:33:31.444Z,100758.16
2018-11-27T10:36:02.282Z,100753.81
2018-11-27T10:38:32.957Z,100750.73
2018-11-27T10:41:04.798Z,100750.27
2018-11-27T10:43:35.540Z,100751.94
2018-11-27T10:46:06.514Z,100752.68
2018-11-27T10:48:37.287Z,100754.83
2018-11-27T10:51:08.048Z,100760.41
2018-11-27T10:53:38.788Z,100752.44
2018-11-27T10:56:09.532Z,100748.52
2018-11-27T10:58:40.205Z,100743.84
2018-11-27T11:01:15.985Z,100742.42
2018-11-27T11:03:46.675Z,100741.48
2018-11-27T11:06:17.386Z,100743.52
2018-11-27T11:08:48.111Z,100747.88
2018-11-27T11:11:18.841Z,100745.84
2018-11-27T11:13:49.552Z,100746.31
2018-11-27T11:16:20.242Z,100746.20
2018-11-27T11:18:51.044Z,100751.94
2018-11-27T11:21:21.791Z,100748.20
2018-11-27T11:23:52.528Z,100753.28
2018-11-27T11:26:23.315Z,100755.86
2018-11-27T11:28:54.150Z,100764.02
2018-11-27T11:31:24.823Z,100765.69
2018-11-27T11:33:55.579Z,100771.45
2018-11-27T11:36:26.251Z,100775.48
2018-11-27T11:38:56.945Z,100781.95
2018-11-27T11:41:31.265Z,100776.61
2018-11-27T11:43:58.514Z,100780.64
2018-11-27T11:46:29.332Z,100779.52
2018-11-27T11:49:01.989Z,100771.75
2018-11-27T11:51:30.824Z,100771.28
2018-11-27T11:54:01.549Z,100771.75
2018-11-27T11:56:32.295Z,100767.36
2018-11-27T11:59:02.928Z,100774.58
2018-11-27T12:01:33.615Z,100770.66
2018-11-27T12:04:04.410Z,100769.91
2018-11-27T12:06:35.164Z,100776.91
2018-11-27T12:09:08.788Z,100775.27
2018-11-27T12:11:39.530Z,100780.86
2018-11-27T12:14:10.283Z,100786.48
2018-11-27T12:16:40.993Z,100791.23
2018-11-27T12:19:11.770Z,100786.13
2018-11-27T12:21:42.514Z,100785.45
2018-11-27T12:24:13.193Z,100780.02
2018-11-27T12:26:43.810Z,100783.22
2018-11-27T12:29:14.538Z,100775.73
2018-11-27T12:31:45.268Z,100776.21
2018-11-27T12:34:16.022Z,100778.75
2018-11-27T12:36:46.720Z,100779.26
2018-11-27T12:39:17.498Z,100786.13
2018-11-27T12:41:48.294Z,100792.72
2018-11-27T12:44:19.111Z,100793.09
2018-11-27T12:46:49.861Z,100800.24
2018-11-27T12:49:20.627Z,100803.25
2018-11-27T12:51:51.353Z,100805.94
2018-11-27T12:54:22.106Z,100804.16
2018-11-27T12:56:52.845Z,100805.61
2018-11-27T12:59:23.494Z,100804.70
2018-11-27T13:01:54.209Z,100799.55
2018-11-27T13:04:24.989Z,100796.64
2018-11-27T13:06:55.723Z,100797.81
2018-11-27T13:09:26.431Z,100804.41
2018-11-27T13:11:57.325Z,100805.71
2018-11-27T13:14:28.054Z,100804.59
2018-11-27T13:16:58.849Z,100806.73
2018-11-27T13:19:29.489Z,100814.61
2018-11-27T13:22:00.279Z,100818.71
2018-11-27T13:24:30.986Z,100815.63
2018-11-27T13:27:01.793Z,100815.05
2018-11-27T13:29:32.548Z,100814.98
2018-11-27T13:32:03.247Z,100808.95
2018-11-27T13:34:33.969Z,100815.70
2018-11-27T13:37:04.831Z,100815.43
2018-11-27T13:39:38.146Z,100814.62
2018-11-27T13:42:09.520Z,100816.70
2018-11-27T13:44:40.258Z,100810.23
2018-11-27T13:47:10.948Z,100800.02
2018-11-27T13:49:41.636Z,100803.03
2018-11-27T13:52:12.308Z,100802.60
2018-11-27T13:54:43.029Z,100817.40
2018-11-27T13:57:13.737Z,100819.41
2018-11-27T13:59:44.459Z,100822.19
2018-11-27T14:02:15.402Z,100821.88
2018-11-27T14:04:46.099Z,100817.59
2018-11-27T14:07:16.866Z,100818.42
2018-11-27T14:09:47.662Z,100820.88
2018-11-27T14:12:18.387Z,100824.36
2018-11-27T14:14:49.106Z,100828.12
2018-11-27T14:17:19.873Z,100822.19
2018-11-27T14:19:50.546Z,100825.01
2018-11-27T14:22:25.099Z,100825.14
2018-11-27T14:24:52.026Z,100829.59
2018-11-27T14:27:22.841Z,100830.08
2018-11-27T14:29:53.564Z,100834.72
2018-11-27T14:32:24.378Z,100825.57
2018-11-27T14:34:59.911Z,100835.12
2018-11-27T14:37:25.942Z,100835.62
2018-11-27T14:39:56.668Z,100839.00
2018-11-27T14:42:27.366Z,100832.70
2018-11-27T14:44:58.173Z,100834.00
2018-11-27T14:47:28.881Z,100835.43
2018-11-27T14:50:04.076Z,100833.04
2018-11-27T14:52:30.304Z,100838.73
2018-11-27T14:55:01.118Z,100839.09
2018-11-27T14:57:31.807Z,100835.80
2018-11-27T15:00:02.582Z,100838.13
2018-11-27T15:02:33.274Z,100845.91
2018-11-27T15:05:04.175Z,100841.47
2018-11-27T15:07:34.915Z,100849.76
2018-11-27T15:10:08.187Z,100849.88
2018-11-27T15:12:39.088Z,100851.76
2018-11-27T15:15:13.026Z,100855.23
2018-11-27T15:17:43.810Z,100857.87
2018-11-27T15:20:19.351Z,100855.73
2018-11-27T15:22:50.036Z,100857.60
2018-11-27T15:25:20.861Z,100862.39
2018-11-27T15:27:51.604Z,100868.86
2018-11-27T15:30:27.197Z,100868.58
2018-11-27T15:33:00.446Z,100867.27
2018-11-27T15:35:31.135Z,100860.67
2018-11-27T15:38:01.856Z,100864.75
2018-11-27T15:40:32.583Z,100858.26
2018-11-27T15:43:03.384Z,100860.48
2018-11-27T15:45:35.495Z,100864.32
2018-11-27T15:48:09.509Z,100860.08
2018-11-27T15:50:40.287Z,100872.59
2018-11-27T15:53:11.114Z,100866.58
2018-11-27T15:55:41.946Z,100866.22
2018-11-27T15:58:14.981Z,100868.27
2018-11-27T16:00:45.881Z,100872.70
2018-11-27T16:03:16.563Z,100867.12
2018-11-27T16:05:47.301Z,100864.08
2018-11-27T16:08:17.994Z,100854.48
2018-11-27T16:10:48.700Z,100855.64
2018-11-27T16:13:19.434Z,100852.55
2018-11-27T16:15:50.131Z,100853.91
2018-11-27T16:18:20.886Z,100867.60
2018-11-27T16:20:51.561Z,100874.79
2018-11-27T16:23:22.321Z,100862.98
2018-11-27T16:25:53.186Z,100860.78
2018-11-27T16:28:23.943Z,100857.36
2018-11-27T16:30:54.654Z,100865.02
2018-11-27T16:33:25.450Z,100864.20
2018-11-27T16:35:56.138Z,100860.46
2018-11-27T16:38:26.839Z,100864.16
2018-11-27T16:40:57.600Z,100869.89
2018-11-27T16:43:28.341Z,100879.17
2018-11-27T16:45:59.038Z,100884.59
2018-11-27T16:48:29.733Z,100882.98
2018-11-27T16:51:00.549Z,100880.77
2018-11-27T16:53:31.181Z,100880.77
2018-11-27T16:56:03.132Z,100880.80
2018-11-27T16:58:32.869Z,100872.06
2018-11-27T17:01:08.979Z,100870.70
2018-11-27T17:03:34.274Z,100868.97
2018-11-27T17:06:04.997Z,100868.03
2018-11-27T17:08:35.715Z,100869.92
2018-11-27T17:11:06.560Z,100869.19
2018-11-27T17:13:37.261Z,100866.20
2018-11-27T17:16:08.020Z,100866.66
2018-11-27T17:18:38.686Z,100867.39
2018-11-27T17:21:09.374Z,100871.72
2018-11-27T17:23:40.049Z,100876.97
2018-11-27T17:26:10.875Z,100874.59
2018-11-27T17:28:41.502Z,100869.95
2018-11-27T17:31:14.369Z,100863.51
2018-11-27T17:34:03.596Z,100863.23
2018-11-27T17:36:34.317Z,100868.84
2018-11-27T17:39:07.933Z,100863.56
2018-11-27T17:41:38.707Z,100864.56
2018-11-27T17:44:12.592Z,100871.21
2018-11-27T17:46:43.355Z,100889.19
2018-11-27T17:49:14.058Z,100889.25
2018-11-27T17:51:44.730Z,100885.02
2018-11-27T17:54:15.416Z,100881.14
2018-11-27T17:56:46.127Z,100869.92
2018-11-27T17:59:16.806Z,100878.63
2018-11-27T18:01:47.497Z,100886.05
2018-11-27T18:04:18.273Z,100879.56
2018-11-27T18:06:48.949Z,100874.88
2018-11-27T18:09:19.630Z,100878.33
2018-11-27T18:11:50.362Z,100885.73
2018-11-27T18:14:21.069Z,100888.88
2018-11-27T18:16:52.126Z,100886.29
2018-11-27T18:19:22.806Z,100892.00
2018-11-27T18:21:53.529Z,100899.00
2018-11-27T18:24:24.215Z,100892.48
2018-11-27T18:26:54.915Z,100886.84
2018-11-27T18:29:25.560Z,100887.77
2018-11-27T18:31:56.431Z,100895.56
2018-11-27T18:34:27.086Z,100879.06
2018-11-27T18:36:57.786Z,100886.88
2018-11-27T18:39:28.465Z,100880.34
2018-11-27T18:41:59.055Z,100883.83
2018-11-27T18:44:29.735Z,100883.02
2018-11-27T18:47:00.389Z,100880.89
2018-11-27T18:49:31.129Z,100883.04
2018-11-27T18:52:01.813Z,100874.35
2018-11-27T18:54:32.543Z,100873.98
2018-11-27T18:59:48.250Z,100877.15
2018-11-27T19:02:18.966Z,100883.64
2018-11-27T19:04:49.690Z,100878.92
2018-11-27T19:07:20.390Z,100873.68
2018-11-27T19:09:51.134Z,100868.45
2018-11-27T19:12:22.043Z,100877.63
2018-11-27T19:14:52.792Z,100875.47
2018-11-27T19:17:23.426Z,100867.66
2018-11-27T19:19:54.114Z,100866.80
2018-11-27T19:22:24.776Z,100865.95
2018-11-27T19:24:55.490Z,100861.61
2018-11-27T19:27:26.215Z,100860.70
2018-11-27T19:29:56.903Z,100861.14
2018-11-27T19:32:27.603Z,100866.74
2018-11-27T19:34:58.494Z,100850.25
2018-11-27T19:37:29.316Z,100850.72
2018-11-27T19:40:00.008Z,100851.16
2018-11-27T19:42:30.671Z,100851.59
2018-11-27T19:45:01.475Z,100861.58
2018-11-27T19:47:32.202Z,100851.62
2018-11-27T19:50:03.055Z,100849.84
2018-11-27T19:52:33.750Z,100846.86
2018-11-27T19:55:04.614Z,100855.54
2018-11-27T19:57:35.315Z,100857.77
2018-11-27T20:00:17.539Z,100870.33
2018-11-27T20:02:48.346Z,100873.84
2018-11-27T20:05:23.877Z,100876.03
2018-11-27T20:07:54.726Z,100872.55
2018-11-27T20:10:25.479Z,100885.18
2018-11-27T20:12:56.133Z,100884.75
2018-11-27T20:15:28.447Z,100885.17
2018-11-27T20:17:59.419Z,100883.00
2018-11-27T20:20:30.226Z,100887.80
2018-11-27T20:23:01.015Z,100891.73
2018-11-27T20:25:31.701Z,100891.73
2018-11-27T20:28:02.563Z,100896.52
2018-11-27T20:30:33.281Z,100896.08
2018-11-27T20:33:04.839Z,100891.30
2018-11-27T20:35:35.685Z,100892.61
2018-11-27T20:38:09.523Z,100888.69
2018-11-27T20:40:41.206Z,100887.83
2018-11-27T20:43:12.216Z,100883.95
2018-11-27T20:45:42.895Z,100886.55
2018-11-27T20:48:18.751Z,100883.55
2018-11-27T20:50:51.978Z,100886.59
2018-11-27T20:53:22.734Z,100887.89
2018-11-27T20:55:53.491Z,100887.45
2018-11-27T20:58:24.286Z,100888.31
2018-11-27T21:00:55.465Z,100888.31
2018-11-27T21:03:26.186Z,100888.33
2018-11-27T21:05:56.925Z,100892.67
2018-11-27T21:08:27.634Z,100888.78
2018-11-27T21:10:58.350Z,100894.38
2018-11-27T21:13:28.992Z,100897.00
2018-11-27T21:16:30.809Z,100889.20
2018-11-27T21:19:01.509Z,100885.31
2018-11-27T21:21:32.206Z,100890.92
2018-11-27T21:24:02.976Z,100892.24
2018-11-27T21:26:33.625Z,100890.51
2018-11-27T21:29:04.359Z,100893.53
2018-11-27T21:31:35.071Z,100889.66
2018-11-27T21:34:05.892Z,100893.55
2018-11-27T21:36:36.643Z,100890.08
2018-11-27T21:39:09.796Z,100895.68
2018-11-27T21:41:40.510Z,100901.31
2018-11-27T21:44:11.219Z,100905.65
2018-11-27T21:46:41.861Z,100902.63
2018-11-27T21:49:12.622Z,100897.44
2018-11-27T21:51:43.238Z,100893.98
2018-11-27T21:54:13.900Z,100895.27
2018-11-27T21:56:44.575Z,100888.78
2018-11-27T21:59:15.285Z,100888.78
2018-11-27T22:01:45.973Z,100881.86
2018-11-27T22:04:16.629Z,100890.50
2018-11-27T22:06:47.312Z,100887.48
2018-11-27T22:09:18.064Z,100884.86
2018-11-27T22:11:48.707Z,100885.31
2018-11-27T22:14:19.348Z,100886.16
2018-11-27T22:16:50.058Z,100886.61
2018-11-27T22:19:20.753Z,100890.50
2018-11-27T22:21:51.480Z,100893.51
2018-11-27T22:24:22.200Z,100888.31
2018-11-27T22:26:52.839Z,100882.26
2018-11-27T22:29:23.503Z,100878.80
2018-11-27T22:31:54.190Z,100876.66
2018-11-27T22:34:24.884Z,100876.66
2018-11-27T22:36:55.584Z,100874.06
2018-11-27T22:39:26.244Z,100870.15
2018-11-27T22:41:56.867Z,100878.83
2018-11-27T22:44:27.554Z,100877.52
2018-11-27T22:46:58.245Z,100884.01
2018-11-27T22:49:28.886Z,100888.80
2018-11-27T22:51:59.530Z,100890.50
2018-11-27T22:54:30.210Z,100887.46
2018-11-27T22:57:00.878Z,100895.72
2018-11-27T22:59:31.554Z,100893.55
2018-11-27T23:02:02.233Z,100894.84
2018-11-27T23:04:32.908Z,100893.98
2018-11-27T23:07:03.560Z,100893.97
2018-11-27T23:09:34.263Z,100898.29
2018-11-27T23:12:05.130Z,100893.10
2018-11-27T23:14:35.822Z,100887.04
2018-11-27T23:17:06.622Z,100888.34
2018-11-27T23:19:37.414Z,100878.80
2018-11-27T23:22:08.139Z,100869.71
2018-11-27T23:24:38.943Z,100871.88
2018-11-27T23:27:09.644Z,100875.36
2018-11-27T23:29:40.618Z,100868.83
2018-11-27T23:32:11.284Z,100867.95
2018-11-27T23:34:41.951Z,100867.53
2018-11-27T23:37:12.671Z,100861.45
2018-11-27T23:39:43.381Z,100854.95
2018-11-27T23:42:14.077Z,100854.52
2018-11-27T23:44:44.733Z,100855.38
2018-11-27T23:47:15.474Z,100854.95
2018-11-27T23:49:46.144Z,100860.13
2018-11-27T23:52:16.894Z,100844.94
2018-11-27T23:54:47.576Z,100846.70
2018-11-27T23:57:18.211Z,100841.91
2018-11-27T23:59:48.889Z,100841.06
